Aeroporto :
LOGIN :

Iscrizione | Disclaimer

   EN    FR    IT 

 










Sommario :    VFR   VFR Marginale   IFR   IFR Intensivo   IFR Molto Intensivo
Visibilità : 
Base nubi : 
>= 8 km
>= 3000ft
5 / 8 km
1000 / 3000 ft
1500m / 5 km
500 / 1000 ft
800 / 1500m
200 / 500 ft
< 800m
< 200 ft
Simboli :   Temporali  Nebbia  Neve Forte  Precipitazioni Forti  Vento > 20 kt
SIGMETs :   Varie  Temporali  Ghiacco  Turbolenza  Onda orograficha  Ceneri Vulcaniche







- Altitudine del aeroporto : 464 ft
- Codice IATA : EVX
- Carte del aeroporto


LFOE - Evreux

ULTIMO METAR :
  • 211200Z AUTO 27015KT 240V300 9999 BKN049 BKN058 18/04 Q1016 BECMG 28015G30KT

METARs OBSOLETI :
  • 211130Z AUTO 28013KT 9999 FEW040 SCT047 BKN054 17/06 Q1015 BECMG 28015G30KT
  • 211100Z AUTO 27016KT 9999 FEW037 SCT043 15/06 Q1015 BECMG 28015G30KT
  • 211030Z AUTO 27018KT 9999 FEW032 16/08 Q1015 BECMG 28015G30KT
  • 211000Z AUTO 28016KT 240V300 9999 BKN032 BKN038 BKN046 16/08 Q1014 BECMG 28015G30KT
  • 210930Z AUTO 28016KT 9999 FEW032 15/08 Q1014 BECMG 28015G30KT

Previsioni scadute.
Nessun NOTAM noto per questo aeroporto.



MetMap, La meteo Aeronautica in un colpo d'occhio ! - Copyright ORBIFLY Dicembre 2007 - Disclaimer

ORBIFLY MET'MAP TEAM :

Programmazione e sviluppo : Alexandra Zaïnal
Concezione e sviluppo : Baudouin d'Aumeries
Co-Programmazione e sviluppo : Marc-Olivier Méhu
Supporto tecnico e logistico : Manuel Goepfert
Aiuto per la traduzione : Arnaldo La Scala

Contatto : metmap@orbifly.com




FONTI E CREDITI :

   NOAA